sensor_id;sensor_type;location;lat;lon;timestamp;temperature;humidity
8231;DHT22;4156;50.908;6.974;2022-07-29T00:01:00;23.40;98.70
8231;DHT22;4156;50.908;6.974;2022-07-29T00:03:26;23.30;99.00
8231;DHT22;4156;50.908;6.974;2022-07-29T00:05:52;23.30;99.00
8231;DHT22;4156;50.908;6.974;2022-07-29T00:08:18;23.30;99.30
8231;DHT22;4156;50.908;6.974;2022-07-29T00:10:44;23.30;99.00
8231;DHT22;4156;50.908;6.974;2022-07-29T00:13:09;23.30;99.10
8231;DHT22;4156;50.908;6.974;2022-07-29T00:15:35;23.20;99.10
8231;DHT22;4156;50.908;6.974;2022-07-29T00:18:00;23.30;99.20
8231;DHT22;4156;50.908;6.974;2022-07-29T00:20:26;23.20;99.20
8231;DHT22;4156;50.908;6.974;2022-07-29T00:22:52;23.20;99.20
8231;DHT22;4156;50.908;6.974;2022-07-29T00:25:19;23.20;99.20
8231;DHT22;4156;50.908;6.974;2022-07-29T00:27:44;23.20;99.40
8231;DHT22;4156;50.908;6.974;2022-07-29T00:30:11;23.20;99.30
8231;DHT22;4156;50.908;6.974;2022-07-29T00:32:37;23.20;99.50
8231;DHT22;4156;50.908;6.974;2022-07-29T00:35:03;23.20;99.70
8231;DHT22;4156;50.908;6.974;2022-07-29T00:37:47;23.20;99.80
8231;DHT22;4156;50.908;6.974;2022-07-29T00:40:13;23.10;99.80
8231;DHT22;4156;50.908;6.974;2022-07-29T00:42:47;23.10;99.90
8231;DHT22;4156;50.908;6.974;2022-07-29T00:45:13;23.10;99.90
8231;DHT22;4156;50.908;6.974;2022-07-29T00:47:39;23.10;99.90
8231;DHT22;4156;50.908;6.974;2022-07-29T00:50:06;23.10;99.90
8231;DHT22;4156;50.908;6.974;2022-07-29T00:52:34;23.10;99.90
8231;DHT22;4156;50.908;6.974;2022-07-29T00:55:01;23.10;99.90
8231;DHT22;4156;50.908;6.974;2022-07-29T00:57:27;23.10;99.90
8231;DHT22;4156;50.908;6.974;2022-07-29T00:59:53;23.10;99.90
8231;DHT22;4156;50.908;6.974;2022-07-29T01:02:18;23.00;99.90
8231;DHT22;4156;50.908;6.974;2022-07-29T01:04:44;23.00;99.90
8231;DHT22;4156;50.908;6.974;2022-07-29T01:07:10;23.00;99.90
8231;DHT22;4156;50.908;6.974;2022-07-29T01:09:37;23.00;99.90
8231;DHT22;4156;50.908;6.974;2022-07-29T01:12:03;23.00;99.90
8231;DHT22;4156;50.908;6.974;2022-07-29T01:14:30;23.00;99.90
8231;DHT22;4156;50.908;6.974;2022-07-29T01:17:10;23.00;99.90
8231;DHT22;4156;50.908;6.974;2022-07-29T01:19:58;23.00;99.90
8231;DHT22;4156;50.908;6.974;2022-07-29T01:22:51;23.00;99.90
8231;DHT22;4156;50.908;6.974;2022-07-29T01:28:44;22.90;99.90
8231;DHT22;4156;50.908;6.974;2022-07-29T01:31:16;22.90;99.90
8231;DHT22;4156;50.908;6.974;2022-07-29T01:33:45;22.90;99.90
8231;DHT22;4156;50.908;6.974;2022-07-29T01:36:23;22.90;99.90
8231;DHT22;4156;50.908;6.974;2022-07-29T01:38:58;22.90;99.90
8231;DHT22;4156;50.908;6.974;2022-07-29T01:41:26;22.90;99.90
8231;DHT22;4156;50.908;6.974;2022-07-29T01:43:57;22.80;99.90
8231;DHT22;4156;50.908;6.974;2022-07-29T01:46:31;22.80;99.90
8231;DHT22;4156;50.908;6.974;2022-07-29T01:49:11;22.90;99.90
8231;DHT22;4156;50.908;6.974;2022-07-29T01:51:51;22.90;99.90
8231;DHT22;4156;50.908;6.974;2022-07-29T01:54:34;22.80;99.90
8231;DHT22;4156;50.908;6.974;2022-07-29T01:57:01;22.80;99.80
8231;DHT22;4156;50.908;6.974;2022-07-29T01:59:29;22.80;99.90
8231;DHT22;4156;50.908;6.974;2022-07-29T02:01:58;22.70;99.90
8231;DHT22;4156;50.908;6.974;2022-07-29T02:04:26;22.70;99.90
8231;DHT22;4156;50.908;6.974;2022-07-29T02:06:54;22.70;99.80
8231;DHT22;4156;50.908;6.974;2022-07-29T02:09:22;22.70;99.70
8231;DHT22;4156;50.908;6.974;2022-07-29T02:11:53;22.60;99.80
8231;DHT22;4156;50.908;6.974;2022-07-29T02:14:21;22.60;99.70
8231;DHT22;4156;50.908;6.974;2022-07-29T02:16:50;22.60;99.70
8231;DHT22;4156;50.908;6.974;2022-07-29T02:19:18;22.60;99.90
8231;DHT22;4156;50.908;6.974;2022-07-29T02:21:45;22.60;99.60
8231;DHT22;4156;50.908;6.974;2022-07-29T02:24:12;22.60;99.90
8231;DHT22;4156;50.908;6.974;2022-07-29T02:26:40;22.60;99.90
8231;DHT22;4156;50.908;6.974;2022-07-29T02:29:06;22.60;99.90
8231;DHT22;4156;50.908;6.974;2022-07-29T02:31:34;22.50;99.90
8231;DHT22;4156;50.908;6.974;2022-07-29T02:34:07;22.50;99.90
8231;DHT22;4156;50.908;6.974;2022-07-29T02:36:34;22.50;99.90
8231;DHT22;4156;50.908;6.974;2022-07-29T02:39:01;22.40;99.90
8231;DHT22;4156;50.908;6.974;2022-07-29T02:41:35;22.40;99.90
8231;DHT22;4156;50.908;6.974;2022-07-29T02:44:06;22.40;99.90
8231;DHT22;4156;50.908;6.974;2022-07-29T02:46:35;22.40;99.90
8231;DHT22;4156;50.908;6.974;2022-07-29T02:49:18;22.30;99.90
8231;DHT22;4156;50.908;6.974;2022-07-29T02:51:58;22.30;99.90
8231;DHT22;4156;50.908;6.974;2022-07-29T02:56:54;22.20;99.90
8231;DHT22;4156;50.908;6.974;2022-07-29T02:59:24;22.20;99.90
8231;DHT22;4156;50.908;6.974;2022-07-29T03:01:52;22.20;99.90
8231;DHT22;4156;50.908;6.974;2022-07-29T03:04:20;22.20;99.90
8231;DHT22;4156;50.908;6.974;2022-07-29T03:06:48;22.20;99.90
8231;DHT22;4156;50.908;6.974;2022-07-29T03:09:14;22.20;99.90
8231;DHT22;4156;50.908;6.974;2022-07-29T03:11:42;22.20;99.90
8231;DHT22;4156;50.908;6.974;2022-07-29T03:14:09;22.20;99.90
8231;DHT22;4156;50.908;6.974;2022-07-29T03:16:35;22.20;99.90
8231;DHT22;4156;50.908;6.974;2022-07-29T03:19:02;22.20;99.90
8231;DHT22;4156;50.908;6.974;2022-07-29T03:21:28;22.20;99.90
8231;DHT22;4156;50.908;6.974;2022-07-29T03:23:54;22.20;99.90
8231;DHT22;4156;50.908;6.974;2022-07-29T03:26:19;22.20;99.90
8231;DHT22;4156;50.908;6.974;2022-07-29T03:28:45;22.10;99.90
8231;DHT22;4156;50.908;6.974;2022-07-29T03:31:10;22.10;99.90
8231;DHT22;4156;50.908;6.974;2022-07-29T03:33:36;22.10;99.90
8231;DHT22;4156;50.908;6.974;2022-07-29T03:36:01;22.10;99.90
8231;DHT22;4156;50.908;6.974;2022-07-29T03:38:29;22.10;99.90
8231;DHT22;4156;50.908;6.974;2022-07-29T03:41:06;22.10;99.90
8231;DHT22;4156;50.908;6.974;2022-07-29T03:43:36;22.10;99.90
8231;DHT22;4156;50.908;6.974;2022-07-29T03:46:04;22.10;99.90
8231;DHT22;4156;50.908;6.974;2022-07-29T03:48:33;22.10;99.90
8231;DHT22;4156;50.908;6.974;2022-07-29T03:51:00;22.00;99.90
8231;DHT22;4156;50.908;6.974;2022-07-29T03:53:26;22.00;99.90
8231;DHT22;4156;50.908;6.974;2022-07-29T03:55:54;22.00;99.90
8231;DHT22;4156;50.908;6.974;2022-07-29T03:58:23;22.00;99.90
8231;DHT22;4156;50.908;6.974;2022-07-29T04:00:52;21.90;99.90
8231;DHT22;4156;50.908;6.974;2022-07-29T04:03:18;21.90;99.90
8231;DHT22;4156;50.908;6.974;2022-07-29T04:05:43;21.90;99.90
8231;DHT22;4156;50.908;6.974;2022-07-29T04:08:09;21.90;99.90
8231;DHT22;4156;50.908;6.974;2022-07-29T04:10:35;21.90;99.90
8231;DHT22;4156;50.908;6.974;2022-07-29T04:13:00;21.90;99.90
8231;DHT22;4156;50.908;6.974;2022-07-29T04:15:26;21.90;99.90
8231;DHT22;4156;50.908;6.974;2022-07-29T04:17:54;21.90;99.90
8231;DHT22;4156;50.908;6.974;2022-07-29T04:20:19;21.90;99.90
8231;DHT22;4156;50.908;6.974;2022-07-29T04:22:45;21.90;99.90
8231;DHT22;4156;50.908;6.974;2022-07-29T04:25:10;21.90;99.90
8231;DHT22;4156;50.908;6.974;2022-07-29T04:27:36;21.90;99.90
8231;DHT22;4156;50.908;6.974;2022-07-29T04:30:21;21.90;99.90
8231;DHT22;4156;50.908;6.974;2022-07-29T04:32:47;21.90;99.90
8231;DHT22;4156;50.908;6.974;2022-07-29T04:35:12;21.80;99.90
8231;DHT22;4156;50.908;6.974;2022-07-29T04:37:38;21.80;99.90
8231;DHT22;4156;50.908;6.974;2022-07-29T04:40:04;21.90;99.90
8231;DHT22;4156;50.908;6.974;2022-07-29T04:42:29;21.90;99.90
8231;DHT22;4156;50.908;6.974;2022-07-29T04:44:55;21.90;99.90
8231;DHT22;4156;50.908;6.974;2022-07-29T04:47:20;21.90;99.90
8231;DHT22;4156;50.908;6.974;2022-07-29T04:49:46;21.90;99.90
8231;DHT22;4156;50.908;6.974;2022-07-29T04:52:11;21.80;99.90
8231;DHT22;4156;50.908;6.974;2022-07-29T04:54:37;21.80;99.90
8231;DHT22;4156;50.908;6.974;2022-07-29T04:57:02;21.80;99.90
8231;DHT22;4156;50.908;6.974;2022-07-29T04:59:28;21.90;99.90
8231;DHT22;4156;50.908;6.974;2022-07-29T05:01:53;21.90;99.90
8231;DHT22;4156;50.908;6.974;2022-07-29T05:04:19;21.90;99.90
8231;DHT22;4156;50.908;6.974;2022-07-29T05:06:44;21.80;99.90
8231;DHT22;4156;50.908;6.974;2022-07-29T05:09:10;21.90;99.90
8231;DHT22;4156;50.908;6.974;2022-07-29T05:11:35;21.90;99.90
8231;DHT22;4156;50.908;6.974;2022-07-29T05:14:01;21.90;99.90
8231;DHT22;4156;50.908;6.974;2022-07-29T05:16:26;21.80;99.90
8231;DHT22;4156;50.908;6.974;2022-07-29T05:18:52;21.80;99.90
8231;DHT22;4156;50.908;6.974;2022-07-29T05:21:18;21.80;99.90
8231;DHT22;4156;50.908;6.974;2022-07-29T05:23:43;21.80;99.90
8231;DHT22;4156;50.908;6.974;2022-07-29T05:26:09;21.80;99.90
8231;DHT22;4156;50.908;6.974;2022-07-29T05:28:34;21.80;99.90
8231;DHT22;4156;50.908;6.974;2022-07-29T05:31:00;21.80;99.90
8231;DHT22;4156;50.908;6.974;2022-07-29T05:33:26;21.80;99.90
8231;DHT22;4156;50.908;6.974;2022-07-29T05:35:51;21.80;99.90
8231;DHT22;4156;50.908;6.974;2022-07-29T05:38:17;21.80;99.90
8231;DHT22;4156;50.908;6.974;2022-07-29T05:40:42;21.80;99.90
8231;DHT22;4156;50.908;6.974;2022-07-29T05:43:07;21.80;99.90
8231;DHT22;4156;50.908;6.974;2022-07-29T05:45:33;21.80;99.90
8231;DHT22;4156;50.908;6.974;2022-07-29T05:47:58;21.90;99.90
8231;DHT22;4156;50.908;6.974;2022-07-29T05:50:24;21.90;99.90
8231;DHT22;4156;50.908;6.974;2022-07-29T05:52:50;21.90;99.90
8231;DHT22;4156;50.908;6.974;2022-07-29T05:55:15;21.90;99.90
8231;DHT22;4156;50.908;6.974;2022-07-29T05:57:41;22.00;99.90
8231;DHT22;4156;50.908;6.974;2022-07-29T06:00:09;22.00;99.90
8231;DHT22;4156;50.908;6.974;2022-07-29T06:02:34;22.00;99.90
8231;DHT22;4156;50.908;6.974;2022-07-29T06:05:00;22.00;99.90
8231;DHT22;4156;50.908;6.974;2022-07-29T06:07:26;22.00;99.90
8231;DHT22;4156;50.908;6.974;2022-07-29T06:09:51;22.00;99.90
8231;DHT22;4156;50.908;6.974;2022-07-29T06:12:16;22.00;99.90
8231;DHT22;4156;50.908;6.974;2022-07-29T06:14:42;22.00;99.90
8231;DHT22;4156;50.908;6.974;2022-07-29T06:17:07;22.00;99.90
8231;DHT22;4156;50.908;6.974;2022-07-29T06:19:36;22.00;99.90
8231;DHT22;4156;50.908;6.974;2022-07-29T06:22:02;22.00;99.90
8231;DHT22;4156;50.908;6.974;2022-07-29T06:24:27;22.00;99.90
8231;DHT22;4156;50.908;6.974;2022-07-29T06:26:53;22.00;99.90
8231;DHT22;4156;50.908;6.974;2022-07-29T06:29:18;22.00;99.90
8231;DHT22;4156;50.908;6.974;2022-07-29T06:31:44;22.00;99.90
8231;DHT22;4156;50.908;6.974;2022-07-29T06:34:09;22.00;99.90
8231;DHT22;4156;50.908;6.974;2022-07-29T06:36:36;22.00;99.90
8231;DHT22;4156;50.908;6.974;2022-07-29T06:39:04;22.00;99.90
8231;DHT22;4156;50.908;6.974;2022-07-29T06:41:31;22.00;99.90
8231;DHT22;4156;50.908;6.974;2022-07-29T06:43:56;22.00;99.90
8231;DHT22;4156;50.908;6.974;2022-07-29T06:46:22;21.90;99.90
8231;DHT22;4156;50.908;6.974;2022-07-29T06:48:48;21.90;99.90
8231;DHT22;4156;50.908;6.974;2022-07-29T06:51:13;21.90;99.90
8231;DHT22;4156;50.908;6.974;2022-07-29T06:53:39;21.90;99.90
8231;DHT22;4156;50.908;6.974;2022-07-29T06:56:06;21.90;99.90
8231;DHT22;4156;50.908;6.974;2022-07-29T06:58:33;21.90;99.90
8231;DHT22;4156;50.908;6.974;2022-07-29T07:01:02;21.90;99.90
8231;DHT22;4156;50.908;6.974;2022-07-29T07:03:28;22.00;99.90
8231;DHT22;4156;50.908;6.974;2022-07-29T07:05:54;22.00;99.90
8231;DHT22;4156;50.908;6.974;2022-07-29T07:08:20;22.00;99.90
8231;DHT22;4156;50.908;6.974;2022-07-29T07:10:46;22.00;99.90
8231;DHT22;4156;50.908;6.974;2022-07-29T07:13:12;22.10;99.90
8231;DHT22;4156;50.908;6.974;2022-07-29T07:15:40;22.10;99.90
8231;DHT22;4156;50.908;6.974;2022-07-29T07:18:06;22.10;99.90
8231;DHT22;4156;50.908;6.974;2022-07-29T07:20:56;22.10;99.90
8231;DHT22;4156;50.908;6.974;2022-07-29T07:23:22;22.20;99.90
8231;DHT22;4156;50.908;6.974;2022-07-29T07:25:47;22.20;99.90
8231;DHT22;4156;50.908;6.974;2022-07-29T07:28:14;22.20;99.90
8231;DHT22;4156;50.908;6.974;2022-07-29T07:30:40;22.20;99.90
8231;DHT22;4156;50.908;6.974;2022-07-29T07:33:05;22.20;99.90
8231;DHT22;4156;50.908;6.974;2022-07-29T07:35:31;22.30;99.90
8231;DHT22;4156;50.908;6.974;2022-07-29T07:37:57;22.30;99.90
8231;DHT22;4156;50.908;6.974;2022-07-29T07:40:23;22.20;99.90
8231;DHT22;4156;50.908;6.974;2022-07-29T07:42:49;22.20;99.90
8231;DHT22;4156;50.908;6.974;2022-07-29T07:45:14;22.30;99.90
8231;DHT22;4156;50.908;6.974;2022-07-29T07:47:41;22.20;99.90
8231;DHT22;4156;50.908;6.974;2022-07-29T07:50:08;22.20;99.90
8231;DHT22;4156;50.908;6.974;2022-07-29T07:52:34;22.20;99.90
8231;DHT22;4156;50.908;6.974;2022-07-29T07:55:00;22.20;99.90
8231;DHT22;4156;50.908;6.974;2022-07-29T07:57:26;22.20;99.90
8231;DHT22;4156;50.908;6.974;2022-07-29T07:59:52;22.20;99.90
8231;DHT22;4156;50.908;6.974;2022-07-29T08:02:17;22.20;99.90
8231;DHT22;4156;50.908;6.974;2022-07-29T08:04:43;22.20;99.90
8231;DHT22;4156;50.908;6.974;2022-07-29T08:07:08;22.20;99.90
8231;DHT22;4156;50.908;6.974;2022-07-29T08:09:34;22.20;99.90
8231;DHT22;4156;50.908;6.974;2022-07-29T08:12:00;22.10;99.90
8231;DHT22;4156;50.908;6.974;2022-07-29T08:14:29;22.00;99.90
8231;DHT22;4156;50.908;6.974;2022-07-29T08:16:55;22.00;99.90
8231;DHT22;4156;50.908;6.974;2022-07-29T08:19:20;21.90;99.90
8231;DHT22;4156;50.908;6.974;2022-07-29T08:21:46;21.90;99.90
8231;DHT22;4156;50.908;6.974;2022-07-29T08:24:11;21.90;99.90
8231;DHT22;4156;50.908;6.974;2022-07-29T08:26:55;21.90;99.90
8231;DHT22;4156;50.908;6.974;2022-07-29T08:29:21;21.90;99.90
8231;DHT22;4156;50.908;6.974;2022-07-29T08:31:46;21.90;99.90
8231;DHT22;4156;50.908;6.974;2022-07-29T08:34:12;21.90;99.90
8231;DHT22;4156;50.908;6.974;2022-07-29T08:36:38;21.90;99.90
8231;DHT22;4156;50.908;6.974;2022-07-29T08:39:04;21.90;99.90
8231;DHT22;4156;50.908;6.974;2022-07-29T08:41:30;21.90;99.90
8231;DHT22;4156;50.908;6.974;2022-07-29T08:43:57;21.90;99.90
8231;DHT22;4156;50.908;6.974;2022-07-29T08:46:23;21.90;99.90
8231;DHT22;4156;50.908;6.974;2022-07-29T08:48:48;22.00;99.90
8231;DHT22;4156;50.908;6.974;2022-07-29T08:51:16;22.00;99.90
8231;DHT22;4156;50.908;6.974;2022-07-29T08:53:44;22.00;99.90
8231;DHT22;4156;50.908;6.974;2022-07-29T08:56:17;22.00;99.90
8231;DHT22;4156;50.908;6.974;2022-07-29T08:58:44;22.10;99.90
8231;DHT22;4156;50.908;6.974;2022-07-29T09:01:10;22.10;99.90
8231;DHT22;4156;50.908;6.974;2022-07-29T09:03:37;22.10;99.90
8231;DHT22;4156;50.908;6.974;2022-07-29T09:06:04;22.10;99.90
8231;DHT22;4156;50.908;6.974;2022-07-29T09:08:31;22.20;99.90
8231;DHT22;4156;50.908;6.974;2022-07-29T09:10:57;22.30;99.90
8231;DHT22;4156;50.908;6.974;2022-07-29T09:13:23;22.30;99.90
8231;DHT22;4156;50.908;6.974;2022-07-29T09:15:50;22.30;99.90
8231;DHT22;4156;50.908;6.974;2022-07-29T09:18:40;22.30;99.90
8231;DHT22;4156;50.908;6.974;2022-07-29T09:21:17;22.30;99.90
8231;DHT22;4156;50.908;6.974;2022-07-29T09:24:10;22.40;99.90
8231;DHT22;4156;50.908;6.974;2022-07-29T09:26:40;22.40;99.90
8231;DHT22;4156;50.908;6.974;2022-07-29T09:29:17;22.30;99.90
8231;DHT22;4156;50.908;6.974;2022-07-29T09:31:45;22.30;99.90
8231;DHT22;4156;50.908;6.974;2022-07-29T09:34:13;22.30;99.90
8231;DHT22;4156;50.908;6.974;2022-07-29T09:36:43;22.30;99.90
8231;DHT22;4156;50.908;6.974;2022-07-29T09:39:10;22.40;99.90
8231;DHT22;4156;50.908;6.974;2022-07-29T09:41:53;22.40;99.90
8231;DHT22;4156;50.908;6.974;2022-07-29T09:44:20;22.50;99.90
8231;DHT22;4156;50.908;6.974;2022-07-29T09:47:03;22.60;99.90
8231;DHT22;4156;50.908;6.974;2022-07-29T09:49:36;22.60;99.90
8231;DHT22;4156;50.908;6.974;2022-07-29T09:52:14;22.60;99.90
8231;DHT22;4156;50.908;6.974;2022-07-29T09:54:40;22.50;99.90
8231;DHT22;4156;50.908;6.974;2022-07-29T09:57:07;22.50;99.90
8231;DHT22;4156;50.908;6.974;2022-07-29T09:59:35;22.50;99.90
8231;DHT22;4156;50.908;6.974;2022-07-29T10:02:01;22.50;99.90
8231;DHT22;4156;50.908;6.974;2022-07-29T10:04:37;22.60;99.90
8231;DHT22;4156;50.908;6.974;2022-07-29T10:07:04;22.50;99.90
8231;DHT22;4156;50.908;6.974;2022-07-29T10:09:31;22.50;99.90
8231;DHT22;4156;50.908;6.974;2022-07-29T10:12:10;22.60;99.90
8231;DHT22;4156;50.908;6.974;2022-07-29T10:14:36;22.60;99.90
8231;DHT22;4156;50.908;6.974;2022-07-29T10:17:03;22.70;99.90
8231;DHT22;4156;50.908;6.974;2022-07-29T10:19:30;22.70;99.90
8231;DHT22;4156;50.908;6.974;2022-07-29T10:21:57;22.70;99.90
8231;DHT22;4156;50.908;6.974;2022-07-29T10:24:28;22.70;99.90
8231;DHT22;4156;50.908;6.974;2022-07-29T10:26:56;22.80;99.90
8231;DHT22;4156;50.908;6.974;2022-07-29T10:29:22;22.80;99.90
8231;DHT22;4156;50.908;6.974;2022-07-29T10:32:16;22.80;99.90
8231;DHT22;4156;50.908;6.974;2022-07-29T10:43:24;23.00;99.90
8231;DHT22;4156;50.908;6.974;2022-07-29T10:45:58;23.00;99.90
8231;DHT22;4156;50.908;6.974;2022-07-29T10:48:24;23.00;99.90
8231;DHT22;4156;50.908;6.974;2022-07-29T10:50:59;23.00;99.90
8231;DHT22;4156;50.908;6.974;2022-07-29T10:53:46;23.10;99.90
8231;DHT22;4156;50.908;6.974;2022-07-29T10:56:32;23.10;99.90
8231;DHT22;4156;50.908;6.974;2022-07-29T11:01:52;23.10;99.90
8231;DHT22;4156;50.908;6.974;2022-07-29T11:07:08;23.20;99.90
8231;DHT22;4156;50.908;6.974;2022-07-29T11:09:34;23.20;99.90
8231;DHT22;4156;50.908;6.974;2022-07-29T11:12:00;23.20;99.90
8231;DHT22;4156;50.908;6.974;2022-07-29T11:17:23;23.30;99.90
8231;DHT22;4156;50.908;6.974;2022-07-29T11:19:48;23.30;99.90
8231;DHT22;4156;50.908;6.974;2022-07-29T11:22:32;23.30;99.90
8231;DHT22;4156;50.908;6.974;2022-07-29T11:25:16;23.30;99.90
8231;DHT22;4156;50.908;6.974;2022-07-29T11:27:42;23.30;99.90
8231;DHT22;4156;50.908;6.974;2022-07-29T11:30:08;23.40;99.90
8231;DHT22;4156;50.908;6.974;2022-07-29T11:32:42;23.40;99.90
8231;DHT22;4156;50.908;6.974;2022-07-29T11:35:34;23.40;99.90
8231;DHT22;4156;50.908;6.974;2022-07-29T11:38:32;23.40;99.90
8231;DHT22;4156;50.908;6.974;2022-07-29T11:41:26;23.50;99.90
8231;DHT22;4156;50.908;6.974;2022-07-29T11:43:57;23.50;99.90
8231;DHT22;4156;50.908;6.974;2022-07-29T11:46:44;23.50;99.90
8231;DHT22;4156;50.908;6.974;2022-07-29T11:49:22;23.50;99.90
8231;DHT22;4156;50.908;6.974;2022-07-29T11:51:56;23.50;99.90
8231;DHT22;4156;50.908;6.974;2022-07-29T11:54:30;23.50;99.90
8231;DHT22;4156;50.908;6.974;2022-07-29T11:56:58;23.60;99.90
8231;DHT22;4156;50.908;6.974;2022-07-29T11:59:24;23.60;99.90
8231;DHT22;4156;50.908;6.974;2022-07-29T12:01:56;23.60;99.90
8231;DHT22;4156;50.908;6.974;2022-07-29T12:04:22;23.60;99.90
8231;DHT22;4156;50.908;6.974;2022-07-29T12:06:50;23.70;99.90
8231;DHT22;4156;50.908;6.974;2022-07-29T12:09:16;23.70;99.90
8231;DHT22;4156;50.908;6.974;2022-07-29T12:11:43;23.70;99.90
8231;DHT22;4156;50.908;6.974;2022-07-29T12:14:08;23.70;99.90
8231;DHT22;4156;50.908;6.974;2022-07-29T12:16:35;23.70;99.90
8231;DHT22;4156;50.908;6.974;2022-07-29T12:19:03;23.70;99.90
8231;DHT22;4156;50.908;6.974;2022-07-29T12:21:48;23.70;99.90
8231;DHT22;4156;50.908;6.974;2022-07-29T12:24:14;23.80;99.90
8231;DHT22;4156;50.908;6.974;2022-07-29T12:26:57;23.80;99.90
8231;DHT22;4156;50.908;6.974;2022-07-29T12:29:23;23.80;99.90
8231;DHT22;4156;50.908;6.974;2022-07-29T12:31:53;23.80;99.90
8231;DHT22;4156;50.908;6.974;2022-07-29T12:34:22;23.80;99.90
8231;DHT22;4156;50.908;6.974;2022-07-29T12:36:49;23.80;99.90
8231;DHT22;4156;50.908;6.974;2022-07-29T12:39:16;23.80;99.90
8231;DHT22;4156;50.908;6.974;2022-07-29T12:41:43;23.90;99.90
8231;DHT22;4156;50.908;6.974;2022-07-29T12:44:09;23.90;99.90
8231;DHT22;4156;50.908;6.974;2022-07-29T12:46:34;23.90;99.90
8231;DHT22;4156;50.908;6.974;2022-07-29T12:49:00;23.90;99.90
8231;DHT22;4156;50.908;6.974;2022-07-29T12:51:30;23.90;99.90
8231;DHT22;4156;50.908;6.974;2022-07-29T12:54:07;23.90;99.90
8231;DHT22;4156;50.908;6.974;2022-07-29T12:56:33;24.00;99.90
8231;DHT22;4156;50.908;6.974;2022-07-29T12:58:59;24.00;99.90
8231;DHT22;4156;50.908;6.974;2022-07-29T13:01:24;24.00;99.90
8231;DHT22;4156;50.908;6.974;2022-07-29T13:03:54;24.00;99.90
8231;DHT22;4156;50.908;6.974;2022-07-29T13:09:13;24.10;99.90
8231;DHT22;4156;50.908;6.974;2022-07-29T13:11:46;24.10;99.90
8231;DHT22;4156;50.908;6.974;2022-07-29T13:14:14;24.10;99.90
8231;DHT22;4156;50.908;6.974;2022-07-29T13:17:05;24.10;99.90
8231;DHT22;4156;50.908;6.974;2022-07-29T13:22:01;24.20;99.90
8231;DHT22;4156;50.908;6.974;2022-07-29T13:24:26;24.20;99.90
8231;DHT22;4156;50.908;6.974;2022-07-29T13:26:52;24.40;99.90
8231;DHT22;4156;50.908;6.974;2022-07-29T13:29:17;24.20;99.90
8231;DHT22;4156;50.908;6.974;2022-07-29T13:31:43;24.30;99.90
8231;DHT22;4156;50.908;6.974;2022-07-29T13:34:08;24.30;99.90
8231;DHT22;4156;50.908;6.974;2022-07-29T13:36:34;24.30;99.90
8231;DHT22;4156;50.908;6.974;2022-07-29T13:39:00;24.30;99.90
8231;DHT22;4156;50.908;6.974;2022-07-29T13:41:27;24.30;99.90
8231;DHT22;4156;50.908;6.974;2022-07-29T13:43:53;24.30;99.90
8231;DHT22;4156;50.908;6.974;2022-07-29T13:46:18;24.40;99.90
8231;DHT22;4156;50.908;6.974;2022-07-29T13:48:44;24.40;99.90
8231;DHT22;4156;50.908;6.974;2022-07-29T13:51:09;24.40;99.90
8231;DHT22;4156;50.908;6.974;2022-07-29T13:53:35;24.40;99.90
8231;DHT22;4156;50.908;6.974;2022-07-29T13:56:01;24.40;99.90
8231;DHT22;4156;50.908;6.974;2022-07-29T13:58:26;24.40;99.90
8231;DHT22;4156;50.908;6.974;2022-07-29T14:00:52;24.40;99.90
8231;DHT22;4156;50.908;6.974;2022-07-29T14:03:17;24.50;99.90
8231;DHT22;4156;50.908;6.974;2022-07-29T14:05:43;24.50;99.90
8231;DHT22;4156;50.908;6.974;2022-07-29T14:08:08;24.50;99.90
8231;DHT22;4156;50.908;6.974;2022-07-29T14:10:34;24.50;99.90
8231;DHT22;4156;50.908;6.974;2022-07-29T14:12:59;24.50;99.90
8231;DHT22;4156;50.908;6.974;2022-07-29T14:15:25;24.50;99.90
8231;DHT22;4156;50.908;6.974;2022-07-29T14:17:51;24.50;99.90
8231;DHT22;4156;50.908;6.974;2022-07-29T14:20:16;24.50;99.90
8231;DHT22;4156;50.908;6.974;2022-07-29T14:22:42;24.50;99.90
8231;DHT22;4156;50.908;6.974;2022-07-29T14:25:08;24.50;99.90
8231;DHT22;4156;50.908;6.974;2022-07-29T14:27:33;24.50;99.90
8231;DHT22;4156;50.908;6.974;2022-07-29T14:29:59;24.60;99.90
8231;DHT22;4156;50.908;6.974;2022-07-29T14:32:24;24.60;99.90
8231;DHT22;4156;50.908;6.974;2022-07-29T14:34:50;24.60;99.90
8231;DHT22;4156;50.908;6.974;2022-07-29T14:37:15;24.60;99.90
8231;DHT22;4156;50.908;6.974;2022-07-29T14:39:41;24.60;99.90
8231;DHT22;4156;50.908;6.974;2022-07-29T14:42:07;24.60;99.90
8231;DHT22;4156;50.908;6.974;2022-07-29T14:44:33;24.60;99.90
8231;DHT22;4156;50.908;6.974;2022-07-29T14:46:59;24.60;99.90
8231;DHT22;4156;50.908;6.974;2022-07-29T14:49:28;24.60;99.90
8231;DHT22;4156;50.908;6.974;2022-07-29T14:51:54;24.60;99.90
8231;DHT22;4156;50.908;6.974;2022-07-29T14:54:19;24.60;99.90
8231;DHT22;4156;50.908;6.974;2022-07-29T14:56:45;24.70;99.90
8231;DHT22;4156;50.908;6.974;2022-07-29T14:59:11;24.70;99.90
8231;DHT22;4156;50.908;6.974;2022-07-29T15:01:37;24.70;99.90
8231;DHT22;4156;50.908;6.974;2022-07-29T15:04:03;24.70;99.90
8231;DHT22;4156;50.908;6.974;2022-07-29T15:06:28;24.70;99.90
8231;DHT22;4156;50.908;6.974;2022-07-29T15:08:54;24.70;99.90
8231;DHT22;4156;50.908;6.974;2022-07-29T15:11:19;24.70;99.90
8231;DHT22;4156;50.908;6.974;2022-07-29T15:13:45;24.70;99.90
8231;DHT22;4156;50.908;6.974;2022-07-29T15:16:10;24.80;99.90
8231;DHT22;4156;50.908;6.974;2022-07-29T15:18:36;24.80;99.90
8231;DHT22;4156;50.908;6.974;2022-07-29T15:21:03;24.80;99.90
8231;DHT22;4156;50.908;6.974;2022-07-29T15:23:29;24.80;99.90
8231;DHT22;4156;50.908;6.974;2022-07-29T15:25:54;24.80;99.90
8231;DHT22;4156;50.908;6.974;2022-07-29T15:28:20;24.80;99.90
8231;DHT22;4156;50.908;6.974;2022-07-29T15:30:46;24.80;99.90
8231;DHT22;4156;50.908;6.974;2022-07-29T15:33:13;24.90;99.90
8231;DHT22;4156;50.908;6.974;2022-07-29T15:35:39;24.90;99.90
8231;DHT22;4156;50.908;6.974;2022-07-29T15:38:04;24.90;99.90
8231;DHT22;4156;50.908;6.974;2022-07-29T15:40:30;25.00;99.90
8231;DHT22;4156;50.908;6.974;2022-07-29T15:42:55;24.90;99.90
8231;DHT22;4156;50.908;6.974;2022-07-29T15:48:43;24.90;99.90
8231;DHT22;4156;50.908;6.974;2022-07-29T15:51:09;24.90;99.90
8231;DHT22;4156;50.908;6.974;2022-07-29T15:53:34;24.90;99.90
8231;DHT22;4156;50.908;6.974;2022-07-29T15:56:00;24.90;99.90
8231;DHT22;4156;50.908;6.974;2022-07-29T15:58:26;24.90;99.90
8231;DHT22;4156;50.908;6.974;2022-07-29T16:00:51;24.90;99.90
8231;DHT22;4156;50.908;6.974;2022-07-29T16:03:17;24.90;99.90
8231;DHT22;4156;50.908;6.974;2022-07-29T16:05:43;24.90;99.90
8231;DHT22;4156;50.908;6.974;2022-07-29T16:08:09;24.90;99.90
8231;DHT22;4156;50.908;6.974;2022-07-29T16:10:34;24.90;99.90
8231;DHT22;4156;50.908;6.974;2022-07-29T16:13:00;24.90;99.90
8231;DHT22;4156;50.908;6.974;2022-07-29T16:15:26;24.90;99.90
8231;DHT22;4156;50.908;6.974;2022-07-29T16:17:51;24.90;99.90
8231;DHT22;4156;50.908;6.974;2022-07-29T16:20:17;24.90;99.60
8231;DHT22;4156;50.908;6.974;2022-07-29T16:22:42;24.90;99.60
8231;DHT22;4156;50.908;6.974;2022-07-29T16:25:08;24.90;99.50
8231;DHT22;4156;50.908;6.974;2022-07-29T16:27:34;24.90;99.40
8231;DHT22;4156;50.908;6.974;2022-07-29T16:29:59;24.90;99.50
8231;DHT22;4156;50.908;6.974;2022-07-29T16:32:25;24.90;99.40
8231;DHT22;4156;50.908;6.974;2022-07-29T16:34:51;25.00;99.30
8231;DHT22;4156;50.908;6.974;2022-07-29T16:37:16;25.00;99.20
8231;DHT22;4156;50.908;6.974;2022-07-29T16:39:42;25.00;98.80